カンザスシティ の空港の天気 - METARとTAF

カンザスシティ国際空港 ( KMCI / MCI ) - アメリカ ミズーリ州カンザスシティ
飛行場実況気象(Metar)
観測時間07/16 00:53 CDT (07/16 05:53 UTC)
風向・風速北東 3m/s
視程10km以上
天気現象
全天の4割程度の雲 雲底高度 1830m
気温26.1℃
湿度65%
気圧1014.8hPa
METARKMCI 160553Z 04005KT 10SM SCT060 26/19 A3001 RMK AO2 SLP148 T02610189 10322 20256 403440206 50010
過去の天気等 Google飛行場航空写真 Wunderground天気予報

過去48時間のMETAR

飛行場予報(TAF)
発表時間: 7/16 00:20 CDT (7/16 05:20 UTC)
予報対象時間: 16日1時 CDT ~ 17日1時 CDT
風向・風速北 3m/s
視程10km以上
全天の8割程度の雲 雲底高度 7620m
16日8時 CDT から
風向・風速北北東 3m/s
視程10km以上
全天の8割程度の雲 雲底高度 7620m
16日13時 CDT から
風向・風速北 4m/s
視程10km以上
全天の4割程度の雲 雲底高度 1520m
KMCI 160520Z 1606/1706 35005KT P6SM BKN250
FM161300 02006KT P6SM BKN250
FM161800 01007KT P6SM SCT050